Acosta, Argentina
Current Conditions -  °F | °C
As of 7:00 AM on Sunday 25 Jan 2015 (Local Time) from SASJ Reporting Station
Clear Clear  
Wind Chill: 18°   Ceiling: Unl
Heat Index: 18°   Visibility: 6mi
Dew Point: 17°   Wind: 7mph
Humidity: 94%   Direction: 340°NNW
Pressure: 29.97"   Gusts: NA
Location:  25.59°S, 65.46°W
Report Text: SASJ 251000Z 34006KT CAVOK 18/17 Q1015
Loading
Personal Weather Stations






























Interactive Weather Map New forecast layout! Learn more

10-Day Weather Forecast

Advertisements
Track Severe Weather on mobile